Time;durP1;ratioP1;P1;durP2;ratioP2;P2;SDS_P1;SDS_P2;PMS_P1;PMS_P2;Temp;Humidity;BMP_temperature;BMP_pressure;BME280_temperature;BME280_humidity;BME280_pressure;Samples;Min_cycle;Max_cycle;Signal;HPM_P1;HPM_P2
2020/12/26 00:01:35;;;;;;;4.55;3.00;;;0.60;99.90;;;;;;5069505;28;20026;-78
2020/12/26 00:04:00;;;;;;;4.85;3.13;;;0.60;99.90;;;;;;5070288;28;20029;-78
2020/12/26 00:06:26;;;;;;;4.25;2.88;;;0.60;99.90;;;;;;5056515;28;20024;-78
2020/12/26 00:08:53;;;;;;;4.20;2.88;;;0.60;99.90;;;;;;5055368;28;20021;-78
2020/12/26 00:11:20;;;;;;;4.07;2.58;;;0.60;99.90;;;;;;5071927;28;20032;-78
2020/12/26 00:13:46;;;;;;;4.50;2.78;;;0.60;99.90;;;;;;5072483;28;20115;-78
2020/12/26 00:16:12;;;;;;;4.10;2.65;;;0.60;99.90;;;;;;5058705;28;20118;-78
2020/12/26 00:18:39;;;;;;;4.40;2.83;;;0.60;99.90;;;;;;5075291;28;20029;-78
2020/12/26 00:21:06;;;;;;;4.72;2.80;;;0.60;99.90;;;;;;5057837;28;20055;-78
2020/12/26 00:23:32;;;;;;;3.72;2.38;;;0.70;99.90;;;;;;5057520;28;20101;-76
2020/12/26 00:25:58;;;;;;;7.20;3.50;;;0.80;99.90;;;;;;5056199;28;20054;-78
2020/12/26 00:28:23;;;;;;;9.50;4.72;;;0.70;99.90;;;;;;5074956;28;20060;-78
2020/12/26 00:30:49;;;;;;;5.45;3.33;;;0.70;99.90;;;;;;5058990;28;20398;-79
2020/12/26 00:33:14;;;;;;;4.85;2.53;;;0.70;99.90;;;;;;5074055;28;20029;-78
2020/12/26 00:35:40;;;;;;;6.03;3.00;;;0.70;99.90;;;;;;5074570;28;20013;-78
2020/12/26 00:38:05;;;;;;;3.95;2.92;;;0.70;99.90;;;;;;5056660;28;20064;-77
2020/12/26 00:40:31;;;;;;;6.00;2.88;;;0.70;99.90;;;;;;5056357;28;20494;-76
2020/12/26 00:42:56;;;;;;;4.07;2.75;;;0.70;99.90;;;;;;5056138;28;20472;-76
2020/12/26 00:45:22;;;;;;;3.28;2.30;;;0.70;99.90;;;;;;5071677;28;20025;-77
2020/12/26 00:47:47;;;;;;;4.72;2.83;;;0.70;99.90;;;;;;5071588;28;20143;-77
2020/12/26 00:50:13;;;;;;;4.15;2.78;;;0.70;99.90;;;;;;5056181;28;20040;-77
2020/12/26 00:52:39;;;;;;;4.80;2.58;;;0.70;99.90;;;;;;5072066;28;20021;-77
2020/12/26 00:55:04;;;;;;;4.30;3.22;;;0.70;99.90;;;;;;5056151;28;20039;-76
2020/12/26 00:57:30;;;;;;;4.93;2.80;;;0.70;99.90;;;;;;5071463;28;20025;-77
2020/12/26 00:59:56;;;;;;;6.38;3.28;;;0.70;99.90;;;;;;5071536;28;20059;-76
2020/12/26 01:02:21;;;;;;;4.93;3.00;;;0.70;99.90;;;;;;5055914;28;20025;-77
2020/12/26 01:04:47;;;;;;;3.58;2.47;;;0.60;99.90;;;;;;5072576;28;20025;-78
2020/12/26 01:07:13;;;;;;;4.05;2.60;;;0.60;99.90;;;;;;5071894;28;20025;-78
2020/12/26 01:09:38;;;;;;;4.55;2.58;;;0.60;99.90;;;;;;5055736;28;20032;-76
2020/12/26 01:12:04;;;;;;;4.35;2.78;;;0.60;99.90;;;;;;5072054;28;20033;-78
2020/12/26 01:14:30;;;;;;;4.28;2.95;;;0.70;99.90;;;;;;5056303;28;20384;-78
2020/12/26 01:16:55;;;;;;;3.45;2.45;;;0.70;99.90;;;;;;5071404;28;20074;-78
2020/12/26 01:19:21;;;;;;;4.40;2.60;;;0.70;99.90;;;;;;5072211;28;20078;-78
2020/12/26 01:21:53;;;;;;;4.80;2.65;;;0.60;99.90;;;;;;5057089;28;20032;-76
2020/12/26 01:24:19;;;;;;;4.25;2.67;;;0.70;99.90;;;;;;5071305;28;20025;-76
2020/12/26 01:26:46;;;;;;;4.30;3.00;;;0.70;99.90;;;;;;5055318;28;20031;-76
2020/12/26 01:29:12;;;;;;;5.85;2.63;;;0.70;99.90;;;;;;5055673;28;20027;-77
2020/12/26 01:31:37;;;;;;;3.80;2.67;;;0.80;99.90;;;;;;5055453;28;20025;-77
2020/12/26 01:34:03;;;;;;;5.50;3.00;;;0.70;99.90;;;;;;5071016;28;20029;-78
2020/12/26 01:36:28;;;;;;;3.20;2.30;;;0.70;99.90;;;;;;5055633;28;20480;-76
2020/12/26 01:38:55;;;;;;;4.13;2.83;;;0.70;99.90;;;;;;5054187;28;20021;-77
2020/12/26 01:41:20;;;;;;;5.88;3.25;;;0.70;99.90;;;;;;5070898;28;20492;-77
2020/12/26 01:44:00;;;;;;;4.45;2.42;;;0.70;99.90;;;;;;5071089;28;20032;-76
2020/12/26 01:46:28;;;;;;;4.28;2.75;;;0.70;99.90;;;;;;5055610;28;20028;-76
2020/12/26 01:48:55;;;;;;;4.03;2.33;;;0.80;99.90;;;;;;5055436;28;20037;-76
2020/12/26 01:51:23;;;;;;;3.30;2.53;;;0.70;99.90;;;;;;5055371;28;20028;-76
2020/12/26 01:53:49;;;;;;;4.28;2.70;;;0.80;99.90;;;;;;5055204;28;20476;-76
2020/12/26 01:56:15;;;;;;;3.83;2.70;;;0.70;99.90;;;;;;5054004;28;20078;-78
2020/12/26 01:58:43;;;;;;;2.95;2.35;;;0.70;99.90;;;;;;5055148;28;20387;-76
2020/12/26 02:01:08;;;;;;;3.63;2.38;;;0.70;99.90;;;;;;5055305;28;20036;-77
2020/12/26 02:03:34;;;;;;;3.38;2.30;;;0.60;99.90;;;;;;5071178;28;20029;-76
2020/12/26 02:06:00;;;;;;;3.28;2.42;;;0.60;99.90;;;;;;5071113;28;20496;-77
2020/12/26 02:08:25;;;;;;;3.58;2.28;;;0.60;99.90;;;;;;5072339;28;20472;-78
2020/12/26 02:10:51;;;;;;;3.40;2.35;;;0.70;99.90;;;;;;5057284;28;20188;-78
2020/12/26 02:13:16;;;;;;;2.38;1.90;;;0.70;99.90;;;;;;5058376;28;20021;-78
2020/12/26 02:15:42;;;;;;;2.45;2.13;;;0.70;99.90;;;;;;5057557;28;20025;-78
2020/12/26 02:18:07;;;;;;;2.50;1.80;;;0.70;99.90;;;;;;5056255;28;20017;-77
2020/12/26 02:20:34;;;;;;;3.05;1.95;;;0.80;99.90;;;;;;5070901;28;20028;-77
2020/12/26 02:23:03;;;;;;;2.83;2.08;;;0.80;99.90;;;;;;5054482;28;20077;-77
2020/12/26 02:25:28;;;;;;;3.85;1.80;;;0.70;99.90;;;;;;5056814;28;20029;-77
2020/12/26 02:27:55;;;;;;;2.38;1.88;;;0.70;99.90;;;;;;5073723;28;20403;-77
2020/12/26 02:30:21;;;;;;;2.72;1.80;;;0.70;99.90;;;;;;5058900;28;20024;-78
2020/12/26 02:32:47;;;;;;;3.03;1.65;;;0.70;99.90;;;;;;5059012;28;20094;-78
2020/12/26 02:35:12;;;;;;;3.22;1.90;;;0.60;99.90;;;;;;5074421;28;20013;-78
2020/12/26 02:37:38;;;;;;;1.90;1.65;;;0.60;99.90;;;;;;5074847;28;20503;-77
2020/12/26 02:40:03;;;;;;;3.97;1.63;;;0.60;99.90;;;;;;5058352;28;20476;-78
2020/12/26 02:42:29;;;;;;;2.17;1.95;;;0.60;99.90;;;;;;5059292;28;20033;-78
2020/12/26 02:44:54;;;;;;;2.03;1.70;;;0.70;99.90;;;;;;5074884;28;20553;-78
2020/12/26 02:47:20;;;;;;;2.65;2.28;;;0.70;99.90;;;;;;5059060;28;20029;-78
2020/12/26 02:49:45;;;;;;;4.38;2.88;;;0.70;99.90;;;;;;5059322;28;20032;-78
2020/12/26 02:52:11;;;;;;;3.53;2.50;;;0.70;99.90;;;;;;5075148;28;20032;-78
2020/12/26 02:54:36;;;;;;;2.42;2.22;;;0.80;99.90;;;;;;5062610;28;20541;-77
2020/12/26 02:57:02;;;;;;;3.90;2.40;;;0.70;99.90;;;;;;5070258;28;20037;-77
2020/12/26 02:59:27;;;;;;;3.90;2.60;;;0.70;99.90;;;;;;5070950;28;20052;-78
2020/12/26 03:01:53;;;;;;;5.07;3.03;;;0.70;99.90;;;;;;5070333;28;20021;-78
2020/12/26 03:04:18;;;;;;;3.90;3.03;;;0.70;99.90;;;;;;5054423;28;20553;-78
2020/12/26 03:06:44;;;;;;;3.97;2.95;;;0.70;99.90;;;;;;5054720;28;20028;-78
2020/12/26 03:09:10;;;;;;;3.97;2.80;;;0.70;99.90;;;;;;5070497;28;20021;-78
2020/12/26 03:11:35;;;;;;;5.70;2.90;;;0.70;99.90;;;;;;5070264;28;20480;-77
2020/12/26 03:14:00;;;;;;;4.80;2.80;;;0.70;99.90;;;;;;5055357;28;20027;-78
2020/12/26 03:16:26;;;;;;;5.65;3.22;;;0.70;99.90;;;;;;5070694;28;20480;-78
2020/12/26 03:18:52;;;;;;;4.53;2.70;;;0.70;99.90;;;;;;5055152;28;20021;-78
2020/12/26 03:21:17;;;;;;;4.68;2.92;;;0.60;99.90;;;;;;5070626;28;20090;-78
2020/12/26 03:23:43;;;;;;;4.45;2.72;;;0.60;99.90;;;;;;5056068;28;20021;-78
2020/12/26 03:26:08;;;;;;;5.00;3.00;;;0.70;99.90;;;;;;5055906;28;20088;-78
2020/12/26 03:28:34;;;;;;;4.13;2.88;;;0.70;99.90;;;;;;5070723;28;20056;-78
2020/12/26 03:30:59;;;;;;;7.80;3.15;;;0.60;99.90;;;;;;5069169;28;20025;-76
2020/12/26 03:33:25;;;;;;;4.05;2.67;;;0.60;99.90;;;;;;5069212;28;20056;-78
2020/12/26 03:35:51;;;;;;;4.32;2.83;;;0.70;99.90;;;;;;5055029;28;20078;-78
2020/12/26 03:38:16;;;;;;;4.63;2.90;;;0.60;99.90;;;;;;5055376;28;20079;-78
2020/12/26 03:40:42;;;;;;;3.75;2.97;;;0.70;99.90;;;;;;5069461;28;20551;-76
2020/12/26 03:43:07;;;;;;;4.95;3.63;;;0.70;99.90;;;;;;5061788;23;20045;-75
2020/12/26 03:45:33;;;;;;;4.30;2.80;;;0.70;99.90;;;;;;5031528;28;20128;-76
2020/12/26 03:47:58;;;;;;;4.53;3.20;;;0.70;99.90;;;;;;5032835;28;20396;-76
2020/12/26 03:50:24;;;;;;;4.13;3.00;;;0.70;99.90;;;;;;5032479;28;20481;-75
2020/12/26 03:52:49;;;;;;;3.95;3.00;;;0.70;99.90;;;;;;5033010;28;20041;-75
2020/12/26 03:55:15;;;;;;;5.40;3.40;;;0.70;99.90;;;;;;5033397;28;20079;-75
2020/12/26 03:57:40;;;;;;;4.35;3.50;;;0.60;99.90;;;;;;5033138;28;20453;-76
2020/12/26 04:00:07;;;;;;;4.63;3.60;;;0.60;99.90;;;;;;5033072;28;20401;-76
2020/12/26 04:02:32;;;;;;;5.35;4.00;;;0.60;99.90;;;;;;5032728;28;20053;-75
2020/12/26 04:04:58;;;;;;;4.47;3.40;;;0.60;99.90;;;;;;5032866;28;20029;-76
2020/12/26 04:07:23;;;;;;;6.70;3.58;;;0.60;99.90;;;;;;5033058;28;20040;-76
2020/12/26 04:09:49;;;;;;;4.60;3.28;;;0.60;99.90;;;;;;5032635;28;20026;-75
2020/12/26 04:12:14;;;;;;;4.68;3.30;;;0.50;99.90;;;;;;5031198;28;20021;-76
2020/12/26 04:14:40;;;;;;;5.07;3.42;;;0.60;99.90;;;;;;5031260;28;20345;-75
2020/12/26 04:17:05;;;;;;;5.05;3.53;;;0.60;99.90;;;;;;5032610;28;20386;-76
2020/12/26 04:19:31;;;;;;;6.35;3.78;;;0.60;99.90;;;;;;5031201;28;20025;-76
2020/12/26 04:21:57;;;;;;;5.20;3.50;;;0.60;99.90;;;;;;5032422;28;20018;-76
2020/12/26 04:24:22;;;;;;;3.95;3.20;;;0.50;99.90;;;;;;5032391;28;20025;-76
2020/12/26 04:26:48;;;;;;;6.70;3.70;;;0.50;99.90;;;;;;5031168;28;20032;-76
2020/12/26 04:29:14;;;;;;;5.63;4.00;;;0.50;99.90;;;;;;5032341;28;20029;-76
2020/12/26 04:31:39;;;;;;;5.90;3.70;;;0.40;99.90;;;;;;5032292;28;20083;-75
2020/12/26 04:34:05;;;;;;;6.32;4.13;;;0.40;99.90;;;;;;5032304;28;20024;-75
2020/12/26 04:36:31;;;;;;;5.80;4.22;;;0.40;99.90;;;;;;5032192;28;20443;-75
2020/12/26 04:38:56;;;;;;;7.38;3.90;;;0.40;99.90;;;;;;5032281;28;20064;-75
2020/12/26 04:41:22;;;;;;;5.55;3.65;;;0.50;99.90;;;;;;5032102;28;20076;-76
2020/12/26 04:43:47;;;;;;;5.53;3.60;;;0.40;99.90;;;;;;5032568;28;20033;-75
2020/12/26 04:46:18;;;;;;;7.38;4.00;;;0.40;99.90;;;;;;5032195;28;20033;-76
2020/12/26 04:48:53;;;;;;;4.65;3.20;;;0.40;99.90;;;;;;5047620;28;20400;-75
2020/12/26 04:51:19;;;;;;;5.15;3.58;;;0.50;99.90;;;;;;5032595;28;20025;-76
2020/12/26 04:53:49;;;;;;;5.20;3.40;;;0.50;99.90;;;;;;5047562;28;20049;-76
2020/12/26 04:56:20;;;;;;;6.00;3.92;;;0.50;99.90;;;;;;5032397;28;20057;-76
2020/12/26 04:58:48;;;;;;;5.18;3.40;;;0.50;99.90;;;;;;5032445;28;20028;-75
2020/12/26 05:01:15;;;;;;;6.13;3.67;;;0.50;99.90;;;;;;5032400;28;20123;-76
2020/12/26 05:03:43;;;;;;;5.55;3.70;;;0.50;99.90;;;;;;5035182;28;20037;-75
2020/12/26 05:06:12;;;;;;;5.72;3.92;;;0.50;99.90;;;;;;5034529;28;20057;-76
2020/12/26 05:08:38;;;;;;;6.53;4.18;;;0.40;99.90;;;;;;5035984;28;20058;-76
2020/12/26 05:11:03;;;;;;;6.22;4.20;;;0.40;99.90;;;;;;5035621;28;20030;-75
2020/12/26 05:13:29;;;;;;;7.00;4.25;;;0.40;99.90;;;;;;5051011;28;20030;-75
2020/12/26 05:15:55;;;;;;;8.63;4.05;;;0.30;99.90;;;;;;5050902;28;20021;-76
2020/12/26 05:18:21;;;;;;;5.70;3.90;;;0.30;99.90;;;;;;5050822;28;20052;-76
2020/12/26 05:20:47;;;;;;;5.90;4.07;;;0.30;99.90;;;;;;5034306;28;20025;-75
2020/12/26 05:23:16;;;;;;;7.30;4.10;;;0.30;99.90;;;;;;5035346;28;20116;-76
2020/12/26 05:25:47;;;;;;;7.40;4.32;;;0.20;99.90;;;;;;5050794;28;20056;-76
2020/12/26 05:28:21;;;;;;;8.57;4.72;;;0.30;99.90;;;;;;5050743;28;20071;-76
2020/12/26 05:30:49;;;;;;;6.85;4.22;;;0.30;99.90;;;;;;5050623;28;20026;-76
2020/12/26 05:33:16;;;;;;;6.50;4.10;;;0.30;99.90;;;;;;5035154;28;20097;-76
2020/12/26 05:35:43;;;;;;;6.47;4.22;;;0.30;99.90;;;;;;5035184;28;20018;-76
2020/12/26 05:38:26;;;;;;;6.80;4.53;;;0.30;99.90;;;;;;5035141;28;20026;-76
2020/12/26 05:40:53;;;;;;;7.53;4.47;;;0.30;99.90;;;;;;5035402;28;20105;-76
2020/12/26 05:43:23;;;;;;;5.80;4.32;;;0.20;99.90;;;;;;5050272;28;20069;-76
2020/12/26 05:45:50;;;;;;;7.88;5.05;;;0.20;99.90;;;;;;5035302;28;20044;-75
2020/12/26 05:48:18;;;;;;;7.10;4.85;;;0.20;99.90;;;;;;5034997;28;20076;-76
2020/12/26 05:50:45;;;;;;;7.55;4.30;;;0.20;99.90;;;;;;5050197;28;20025;-76
2020/12/26 05:53:15;;;;;;;6.40;4.18;;;0.20;99.90;;;;;;5034775;28;20025;-77
2020/12/26 05:55:46;;;;;;;6.65;4.50;;;0.30;99.90;;;;;;5033525;28;20022;-76
2020/12/26 05:58:19;;;;;;;7.30;4.45;;;0.30;99.90;;;;;;5034830;28;20022;-76
2020/12/26 06:00:44;;;;;;;5.47;3.47;;;0.30;99.90;;;;;;5050267;28;20021;-76
2020/12/26 06:03:20;;;;;;;3.10;2.22;;;0.30;99.90;;;;;;5034615;28;20484;-76
2020/12/26 06:05:50;;;;;;;4.35;1.90;;;0.20;99.90;;;;;;5033365;28;20080;-76
2020/12/26 06:08:17;;;;;;;4.35;2.08;;;0.20;99.90;;;;;;5034654;28;20021;-76
2020/12/26 06:10:59;;;;;;;2.17;1.90;;;0.30;99.90;;;;;;5033232;28;20572;-76
2020/12/26 06:13:27;;;;;;;3.13;1.83;;;0.30;99.90;;;;;;5034272;28;20067;-75
2020/12/26 06:15:54;;;;;;;2.05;1.40;;;0.40;99.90;;;;;;5049790;28;20025;-75
2020/12/26 06:18:24;;;;;;;2.20;1.38;;;0.40;99.90;;;;;;5034472;28;20388;-76
2020/12/26 06:20:53;;;;;;;2.10;1.63;;;0.30;99.90;;;;;;5034337;28;20030;-76
2020/12/26 06:23:23;;;;;;;3.28;1.67;;;0.40;99.90;;;;;;5034212;28;20040;-76
2020/12/26 06:25:55;;;;;;;3.15;1.73;;;0.40;99.90;;;;;;5049646;28;20489;-76
2020/12/26 06:28:31;;;;;;;2.05;1.58;;;0.40;99.90;;;;;;5049594;28;20116;-76
2020/12/26 06:31:09;;;;;;;2.50;1.88;;;0.40;99.90;;;;;;5034073;28;20039;-76
2020/12/26 06:33:42;;;;;;;2.03;1.67;;;0.50;99.90;;;;;;5049467;28;20579;-76
2020/12/26 06:36:09;;;;;;;3.97;2.08;;;0.50;99.90;;;;;;5034121;28;20028;-76
2020/12/26 06:38:36;;;;;;;3.53;1.75;;;0.40;99.90;;;;;;5049309;28;20028;-76
2020/12/26 06:41:18;;;;;;;3.78;2.47;;;0.40;99.90;;;;;;5033910;28;20542;-75
2020/12/26 06:43:47;;;;;;;2.15;1.83;;;0.40;99.90;;;;;;5033962;28;20037;-75
2020/12/26 06:46:21;;;;;;;3.50;1.95;;;0.30;99.90;;;;;;5033884;28;20111;-76
2020/12/26 06:48:55;;;;;;;3.85;2.08;;;0.30;99.90;;;;;;5033951;28;20037;-76
2020/12/26 06:51:34;;;;;;;3.58;2.50;;;0.30;99.90;;;;;;5049077;28;20030;-76
2020/12/26 06:54:09;;;;;;;3.70;2.42;;;0.30;99.90;;;;;;5033992;28;20032;-75
2020/12/26 06:56:35;;;;;;;3.17;2.00;;;0.20;99.90;;;;;;5032305;28;20095;-76
2020/12/26 06:59:08;;;;;;;2.92;2.20;;;0.20;99.90;;;;;;5033642;28;20433;-76
2020/12/26 07:01:35;;;;;;;3.60;2.20;;;0.20;99.90;;;;;;5032345;28;20401;-76
2020/12/26 07:04:07;;;;;;;4.00;2.72;;;0.30;99.90;;;;;;5033573;28;20036;-76
2020/12/26 07:06:36;;;;;;;6.47;3.90;;;0.30;99.90;;;;;;5033616;28;20497;-76
2020/12/26 07:09:02;;;;;;;6.15;3.90;;;0.30;99.90;;;;;;5033426;28;20087;-75
2020/12/26 07:11:27;;;;;;;7.75;5.10;;;0.30;99.90;;;;;;5033313;28;20401;-76
2020/12/26 07:13:53;;;;;;;8.23;4.20;;;0.30;99.90;;;;;;5033624;28;20057;-75
2020/12/26 07:16:37;;;;;;;6.35;4.05;;;0.30;99.90;;;;;;5032063;28;20392;-76
2020/12/26 07:19:27;;;;;;;5.55;3.33;;;0.30;99.90;;;;;;5032753;28;20515;-76
2020/12/26 07:22:00;;;;;;;5.03;3.45;;;0.30;99.90;;;;;;5033758;28;20493;-76
2020/12/26 07:24:30;;;;;;;7.35;3.72;;;0.20;99.90;;;;;;5048457;28;20480;-75
2020/12/26 07:27:15;;;;;;;7.30;4.70;;;0.20;99.90;;;;;;5031533;28;20025;-76
2020/12/26 07:30:11;;;;;;;9.40;3.90;;;0.30;99.90;;;;;;5033057;28;20553;-75
2020/12/26 07:32:42;;;;;;;10.95;5.18;;;0.30;99.90;;;;;;5033060;28;20026;-76
2020/12/26 07:35:08;;;;;;;10.50;8.00;;;0.30;99.90;;;;;;5033727;28;20021;-75
2020/12/26 07:37:34;;;;;;;8.93;5.55;;;0.30;99.90;;;;;;5033056;28;20079;-76
2020/12/26 07:39:59;;;;;;;5.13;4.00;;;0.30;99.90;;;;;;5033002;28;20108;-75
2020/12/26 07:42:26;;;;;;;6.65;3.95;;;0.30;99.90;;;;;;5048185;28;20037;-76
2020/12/26 07:44:52;;;;;;;6.57;4.32;;;0.40;99.90;;;;;;5032972;28;20126;-76
2020/12/26 07:47:18;;;;;;;5.82;4.05;;;0.40;99.90;;;;;;5031891;28;20084;-77
2020/12/26 07:49:56;;;;;;;5.45;3.70;;;0.40;99.90;;;;;;5031734;28;20038;-77
2020/12/26 07:52:21;;;;;;;5.65;3.65;;;0.50;99.90;;;;;;5031288;28;20117;-75
2020/12/26 07:54:57;;;;;;;5.53;3.70;;;0.60;99.90;;;;;;5032922;28;20114;-75
2020/12/26 07:57:23;;;;;;;5.93;3.78;;;0.60;99.90;;;;;;5030861;28;20021;-75
2020/12/26 07:59:48;;;;;;;5.57;3.30;;;0.60;99.90;;;;;;5033046;28;20396;-75
2020/12/26 08:02:14;;;;;;;5.30;3.20;;;0.60;99.90;;;;;;5031961;28;20048;-76
2020/12/26 08:04:44;;;;;;;3.80;2.97;;;0.50;99.90;;;;;;5032746;28;20048;-75
2020/12/26 08:07:14;;;;;;;3.88;2.60;;;0.60;99.90;;;;;;5032884;28;20487;-76
2020/12/26 08:09:47;;;;;;;3.35;2.28;;;0.60;99.90;;;;;;5032399;28;20034;-76
2020/12/26 08:12:13;;;;;;;3.85;2.53;;;0.60;99.90;;;;;;5031889;28;20025;-75
2020/12/26 08:14:38;;;;;;;4.00;2.63;;;0.70;99.90;;;;;;5033367;28;20021;-76
2020/12/26 08:17:06;;;;;;;6.78;2.53;;;0.70;99.90;;;;;;5047793;28;20129;-76
2020/12/26 08:19:34;;;;;;;3.33;2.33;;;0.70;99.90;;;;;;5032754;28;20022;-75
2020/12/26 08:21:59;;;;;;;4.80;2.53;;;0.70;99.90;;;;;;5032306;28;20029;-76
2020/12/26 08:24:25;;;;;;;4.63;2.28;;;0.70;99.90;;;;;;5031732;28;20424;-76
2020/12/26 08:26:55;;;;;;;2.60;1.60;;;0.80;99.90;;;;;;5030986;28;20033;-75
2020/12/26 08:29:29;;;;;;;3.67;2.42;;;0.80;99.90;;;;;;5033423;28;20100;-75
2020/12/26 08:32:00;;;;;;;2.65;2.10;;;0.80;99.90;;;;;;5036637;28;20032;-73
2020/12/26 08:34:45;;;;;;;6.15;2.50;;;0.90;99.90;;;;;;5032831;28;20515;-73
2020/12/26 08:37:27;;;;;;;2.63;2.10;;;0.90;99.90;;;;;;5050010;28;20477;-73
2020/12/26 08:39:58;;;;;;;3.83;1.90;;;0.90;99.90;;;;;;5036161;28;20093;-73
2020/12/26 08:42:25;;;;;;;2.63;1.80;;;0.90;99.90;;;;;;5051473;28;20118;-73
2020/12/26 08:44:51;;;;;;;4.03;2.53;;;0.90;99.90;;;;;;5036554;28;20071;-73
2020/12/26 08:47:32;;;;;;;4.78;2.78;;;0.90;99.90;;;;;;5036079;28;20025;-72
2020/12/26 08:49:58;;;;;;;4.13;2.00;;;0.90;99.90;;;;;;5034776;28;20025;-73
2020/12/26 08:52:27;;;;;;;5.30;3.30;;;0.90;99.90;;;;;;5036084;28;20032;-74
2020/12/26 08:55:09;;;;;;;6.50;2.85;;;1.00;99.90;;;;;;5051443;28;20026;-73
2020/12/26 08:57:38;;;;;;;4.93;2.10;;;1.10;99.90;;;;;;5036445;28;20062;-72
2020/12/26 09:00:20;;;;;;;3.35;2.20;;;1.10;99.90;;;;;;5036057;28;20029;-73
2020/12/26 09:02:50;;;;;;;3.40;2.13;;;1.20;99.90;;;;;;5035947;28;20031;-73
2020/12/26 09:05:23;;;;;;;3.13;2.00;;;1.30;99.90;;;;;;5051348;28;20268;-73
2020/12/26 09:08:07;;;;;;;2.90;2.03;;;1.40;99.90;;;;;;5051311;28;20076;-73
2020/12/26 09:10:37;;;;;;;4.85;2.30;;;1.40;99.90;;;;;;5036125;28;20048;-73
2020/12/26 09:13:12;;;;;;;4.15;2.30;;;1.40;99.90;;;;;;5035724;28;20030;-73
2020/12/26 09:15:53;;;;;;;2.45;1.80;;;1.40;99.90;;;;;;5036047;28;20574;-73
2020/12/26 09:18:20;;;;;;;4.22;2.20;;;1.40;99.90;;;;;;5035027;28;20109;-73
2020/12/26 09:20:59;;;;;;;3.72;2.20;;;1.40;99.90;;;;;;5036018;28;20103;-73
2020/12/26 09:23:36;;;;;;;3.88;2.20;;;1.40;99.90;;;;;;5035506;28;20026;-73
2020/12/26 09:26:29;;;;;;;4.60;2.10;;;1.40;99.90;;;;;;5051154;28;20092;-73
2020/12/26 09:28:55;;;;;;;6.90;1.88;;;1.50;99.90;;;;;;5034889;28;20037;-73
2020/12/26 09:31:28;;;;;;;4.03;1.90;;;1.40;99.90;;;;;;5035459;28;20038;-74
2020/12/26 09:33:56;;;;;;;5.40;2.67;;;1.50;99.90;;;;;;5035434;28;20036;-72
2020/12/26 09:36:25;;;;;;;4.97;2.33;;;1.40;99.90;;;;;;5035379;28;20029;-72
2020/12/26 09:38:51;;;;;;;2.78;2.28;;;1.50;99.90;;;;;;5050634;28;20590;-72
2020/12/26 09:41:19;;;;;;;4.35;2.58;;;1.60;99.90;;;;;;5035370;28;20065;-72
2020/12/26 09:43:50;;;;;;;3.60;2.10;;;1.70;99.90;;;;;;5080376;22;20100;-78
2020/12/26 09:46:16;;;;;;;4.20;1.90;;;1.70;99.90;;;;;;5053458;28;20499;-78
2020/12/26 09:48:42;;;;;;;3.78;2.10;;;1.70;99.90;;;;;;5053641;28;20476;-78
2020/12/26 09:51:19;;;;;;;2.70;2.00;;;1.60;99.90;;;;;;5040491;28;20029;-78
2020/12/26 09:53:45;;;;;;;2.65;2.03;;;1.60;99.90;;;;;;5038221;28;20017;-78
2020/12/26 09:56:12;;;;;;;2.65;1.92;;;2.00;99.90;;;;;;5038134;28;20028;-77
2020/12/26 09:58:38;;;;;;;4.95;1.95;;;4.80;99.90;;;;;;5053489;28;20017;-78
2020/12/26 10:01:05;;;;;;;4.28;2.28;;;9.80;75.40;;;;;;5053665;28;20435;-78
2020/12/26 10:03:30;;;;;;;2.05;1.42;;;14.10;54.40;;;;;;5054535;28;20017;-78
2020/12/26 10:05:56;;;;;;;2.10;1.75;;;17.30;39.80;;;;;;5040182;28;20075;-78
2020/12/26 10:08:21;;;;;;;2.13;1.70;;;18.10;36.10;;;;;;5053953;28;20025;-77
2020/12/26 10:10:47;;;;;;;2.80;1.73;;;16.10;37.40;;;;;;5041301;28;20033;-78
2020/12/26 10:13:12;;;;;;;2.50;1.83;;;17.10;38.40;;;;;;5058080;28;20025;-78
2020/12/26 10:15:38;;;;;;;2.60;1.80;;;18.80;33.60;;;;;;5058476;28;20028;-78
2020/12/26 10:18:03;;;;;;;2.50;1.80;;;19.40;32.40;;;;;;5055812;28;20021;-78
2020/12/26 10:20:29;;;;;;;3.28;2.22;;;20.60;30.80;;;;;;5038615;28;20034;-78
2020/12/26 10:22:55;;;;;;;3.80;2.10;;;18.10;32.00;;;;;;5052081;28;20400;-78
2020/12/26 10:25:24;;;;;;;6.25;3.00;;;14.90;37.60;;;;;;5051281;28;20087;-78
2020/12/26 10:27:50;;;;;;;3.75;2.45;;;11.80;43.80;;;;;;5051218;28;20029;-77
2020/12/26 10:30:17;;;;;;;2.65;2.20;;;9.60;49.50;;;;;;5049871;28;20499;-77
2020/12/26 10:32:43;;;;;;;3.95;3.03;;;7.90;55.10;;;;;;5034315;28;20026;-77
2020/12/26 10:35:09;;;;;;;4.40;2.72;;;6.50;59.60;;;;;;5049687;28;20017;-76
2020/12/26 10:37:34;;;;;;;3.33;2.63;;;5.50;63.00;;;;;;5034509;28;20029;-78
2020/12/26 10:40:00;;;;;;;5.15;3.10;;;4.60;67.70;;;;;;5034176;28;20478;-77
2020/12/26 10:42:25;;;;;;;8.40;4.38;;;4.10;72.50;;;;;;5049219;28;20192;-77
2020/12/26 10:44:52;;;;;;;5.30;3.70;;;3.60;77.90;;;;;;5033365;28;20025;-77
2020/12/26 10:47:17;;;;;;;6.03;3.85;;;3.20;88.30;;;;;;5034045;28;20039;-77
2020/12/26 10:49:43;;;;;;;5.22;3.42;;;2.90;95.60;;;;;;5033879;28;20104;-77
2020/12/26 10:52:09;;;;;;;8.82;4.72;;;2.70;99.90;;;;;;5032690;28;20391;-77
2020/12/26 10:54:34;;;;;;;3.80;2.97;;;2.40;99.90;;;;;;5033927;28;20472;-77
2020/12/26 10:57:00;;;;;;;5.72;3.88;;;2.30;99.90;;;;;;5034002;28;20439;-77
2020/12/26 10:59:26;;;;;;;8.10;3.63;;;2.20;99.90;;;;;;5033548;28;20057;-77
2020/12/26 11:01:51;;;;;;;6.00;3.47;;;2.10;99.90;;;;;;5048660;28;20025;-77
2020/12/26 11:04:17;;;;;;;7.22;3.55;;;2.10;99.90;;;;;;5033758;28;20374;-77
2020/12/26 11:06:48;;;;;;;4.72;3.10;;;2.10;99.90;;;;;;5033893;28;20029;-77
2020/12/26 11:09:13;;;;;;;7.38;3.47;;;2.00;99.90;;;;;;5049011;28;20032;-77
2020/12/26 11:11:45;;;;;;;4.93;3.38;;;2.00;99.90;;;;;;5033694;28;20037;-77
2020/12/26 11:14:10;;;;;;;8.07;3.55;;;2.00;99.90;;;;;;5049549;28;20022;-77
2020/12/26 11:16:36;;;;;;;8.20;4.07;;;2.20;99.90;;;;;;5033685;28;20075;-77
2020/12/26 11:19:01;;;;;;;7.00;3.95;;;2.30;99.90;;;;;;5048900;28;20021;-77
2020/12/26 11:21:27;;;;;;;5.15;3.75;;;2.50;99.90;;;;;;5049043;28;20369;-77
2020/12/26 11:23:52;;;;;;;5.20;3.72;;;2.70;99.90;;;;;;5033687;28;20492;-77
2020/12/26 11:26:18;;;;;;;4.88;3.35;;;3.00;99.90;;;;;;5049181;28;20036;-77
2020/12/26 11:28:43;;;;;;;6.90;3.95;;;3.20;99.90;;;;;;5033418;28;20025;-77
2020/12/26 11:31:09;;;;;;;6.05;3.83;;;3.50;99.90;;;;;;5033333;28;20036;-78
2020/12/26 11:33:34;;;;;;;6.10;3.50;;;3.70;99.90;;;;;;5033207;28;20369;-76
2020/12/26 11:36:00;;;;;;;6.35;3.50;;;4.00;99.90;;;;;;5033185;28;20025;-77
2020/12/26 11:38:26;;;;;;;5.00;3.33;;;4.10;99.90;;;;;;5033146;28;20100;-77
2020/12/26 11:40:51;;;;;;;6.97;3.08;;;4.80;95.30;;;;;;5033152;28;20021;-77
2020/12/26 11:43:17;;;;;;;3.70;2.40;;;6.90;88.80;;;;;;5032913;28;20467;-77
2020/12/26 11:45:42;;;;;;;5.10;2.50;;;10.20;64.60;;;;;;5031964;28;20025;-77
2020/12/26 11:48:08;;;;;;;4.30;2.38;;;13.60;50.10;;;;;;5048508;28;20033;-77
2020/12/26 11:50:33;;;;;;;1.75;1.33;;;16.10;42.10;;;;;;5032112;28;20034;-77
2020/12/26 11:52:59;;;;;;;2.13;1.30;;;18.00;36.20;;;;;;5049639;28;20022;-77
2020/12/26 11:55:25;;;;;;;2.15;1.70;;;19.90;30.60;;;;;;5034258;28;20025;-78
2020/12/26 11:57:50;;;;;;;2.17;1.77;;;21.20;29.20;;;;;;5049826;28;20060;-77
2020/12/26 12:00:16;;;;;;;1.90;1.67;;;22.00;27.50;;;;;;5035180;28;20536;-77
2020/12/26 12:02:41;;;;;;;1.77;1.30;;;24.20;26.60;;;;;;5035400;28;20045;-78
2020/12/26 12:05:07;;;;;;;3.55;1.70;;;25.10;24.50;;;;;;5054134;28;20036;-78
2020/12/26 12:07:33;;;;;;;2.83;1.80;;;24.50;23.60;;;;;;5034104;28;20061;-77
2020/12/26 12:09:58;;;;;;;2.40;1.67;;;24.80;24.40;;;;;;5035943;28;20459;-77
2020/12/26 12:12:25;;;;;;;3.25;1.63;;;24.60;23.80;;;;;;5053688;28;20084;-77
2020/12/26 12:14:51;;;;;;;2.83;1.55;;;24.10;23.10;;;;;;5038917;28;20026;-78
2020/12/26 12:17:17;;;;;;;1.92;1.40;;;22.80;24.80;;;;;;5038872;28;20100;-78
2020/12/26 12:19:42;;;;;;;2.17;1.60;;;22.10;26.10;;;;;;5039718;28;20376;-78
2020/12/26 12:22:08;;;;;;;3.40;1.80;;;22.00;26.00;;;;;;5057601;28;20033;-78
2020/12/26 12:24:33;;;;;;;3.67;1.90;;;20.00;26.50;;;;;;5039552;28;20026;-78
2020/12/26 12:26:59;;;;;;;2.63;1.50;;;17.60;29.30;;;;;;5054118;28;20104;-77
2020/12/26 12:29:24;;;;;;;1.60;1.20;;;16.30;31.40;;;;;;5052146;28;20026;-77
2020/12/26 12:31:50;;;;;;;1.58;1.20;;;16.70;31.00;;;;;;5036738;28;20396;-78
2020/12/26 12:34:15;;;;;;;2.95;1.80;;;17.70;29.30;;;;;;5038777;28;20030;-77
2020/12/26 12:36:41;;;;;;;2.00;1.50;;;19.90;27.90;;;;;;5038999;28;20557;-78
2020/12/26 12:39:08;;;;;;;4.10;2.20;;;21.70;25.90;;;;;;5035105;28;20401;-78
2020/12/26 12:41:34;;;;;;;2.35;1.70;;;22.10;25.90;;;;;;5034817;28;20042;-77
2020/12/26 12:43:59;;;;;;;2.72;1.90;;;21.90;25.10;;;;;;5051812;28;20029;-78
2020/12/26 12:46:25;;;;;;;1.90;1.50;;;20.90;25.40;;;;;;5035294;28;20036;-78
2020/12/26 12:48:50;;;;;;;4.72;2.90;;;20.60;25.50;;;;;;5017476;28;20040;-77
2020/12/26 12:51:16;;;;;;;6.55;2.90;;;20.60;26.20;;;;;;5020200;28;20018;-78
2020/12/26 12:53:41;;;;;;;4.68;2.35;;;21.10;26.60;;;;;;5020002;28;20156;-77
2020/12/26 12:56:07;;;;;;;6.32;2.95;;;22.10;24.90;;;;;;5017897;28;20076;-78
2020/12/26 12:58:32;;;;;;;3.40;1.80;;;21.60;24.80;;;;;;5017054;28;20022;-78